createdAt,value
2019-01-15T00:02:27.887Z,100.00
2019-01-15T00:04:56.655Z,100.00
2019-01-15T00:07:25.013Z,100.00
2019-01-15T00:09:53.014Z,100.00
2019-01-15T00:12:21.436Z,100.00
2019-01-15T00:14:50.039Z,100.00
2019-01-15T00:17:18.621Z,100.00
2019-01-15T00:19:47.078Z,100.00
2019-01-15T00:22:15.686Z,99.08
2019-01-15T00:24:43.816Z,99.48
2019-01-15T00:27:11.821Z,99.28
2019-01-15T00:29:40.332Z,99.48
2019-01-15T00:32:08.378Z,99.53
2019-01-15T00:34:36.387Z,99.90
2019-01-15T00:37:04.739Z,99.06
2019-01-15T00:39:33.211Z,99.16
2019-01-15T00:42:01.790Z,98.64
2019-01-15T00:44:29.860Z,99.68
2019-01-15T00:46:57.940Z,97.71
2019-01-15T00:49:26.220Z,98.59
2019-01-15T00:51:54.308Z,97.68
2019-01-15T00:54:22.788Z,95.46
2019-01-15T00:56:51.467Z,96.99
2019-01-15T00:59:19.622Z,97.50
2019-01-15T01:01:47.778Z,98.30
2019-01-15T01:04:16.059Z,95.90
2019-01-15T01:06:44.470Z,94.76
2019-01-15T01:09:13.064Z,95.73
2019-01-15T01:11:41.206Z,94.86
2019-01-15T01:14:09.726Z,95.79
2019-01-15T01:16:38.058Z,94.93
2019-01-15T01:19:06.202Z,96.19
2019-01-15T01:21:34.781Z,94.38
2019-01-15T01:24:02.871Z,94.89
2019-01-15T01:26:31.298Z,93.65
2019-01-15T01:28:59.488Z,93.81
2019-01-15T01:31:27.571Z,92.85
2019-01-15T01:33:55.743Z,92.57
2019-01-15T01:36:23.991Z,93.32
2019-01-15T01:38:52.426Z,93.35
2019-01-15T01:41:20.691Z,92.04
2019-01-15T01:43:49.009Z,92.96
2019-01-15T01:46:17.490Z,92.55
2019-01-15T01:48:45.691Z,91.41
2019-01-15T01:51:14.450Z,91.12
2019-01-15T01:53:43.412Z,91.71
2019-01-15T01:56:12.278Z,91.52
2019-01-15T01:58:40.568Z,90.85
2019-01-15T02:01:09.463Z,90.77
2019-01-15T02:03:37.675Z,90.86
2019-01-15T02:06:06.206Z,92.46
2019-01-15T02:08:34.390Z,90.77
2019-01-15T02:11:02.469Z,90.83
2019-01-15T02:13:31.192Z,90.77
2019-01-15T02:15:59.466Z,90.83
2019-01-15T02:18:27.831Z,91.31
2019-01-15T02:20:56.028Z,90.26
2019-01-15T02:23:24.882Z,89.86
2019-01-15T02:25:53.367Z,90.24
2019-01-15T02:28:21.800Z,91.37
2019-01-15T02:30:50.015Z,89.95
2019-01-15T02:33:18.500Z,89.40
2019-01-15T02:35:46.782Z,89.46
2019-01-15T02:39:23.259Z,89.81
2019-01-15T02:41:51.925Z,90.15
2019-01-15T02:44:20.566Z,89.81
2019-01-15T02:46:48.781Z,90.47
2019-01-15T02:49:17.117Z,90.47
2019-01-15T02:51:45.312Z,90.50
2019-01-15T02:54:13.551Z,89.51
2019-01-15T02:56:41.832Z,89.54
2019-01-15T02:59:10.030Z,90.29
2019-01-15T03:01:38.287Z,90.39
2019-01-15T03:04:06.820Z,88.10
2019-01-15T03:06:35.391Z,89.33
2019-01-15T03:09:05.128Z,89.33
2019-01-15T03:11:33.583Z,89.01
2019-01-15T03:14:02.086Z,88.75
2019-01-15T03:16:31.273Z,88.35
2019-01-15T03:19:00.198Z,88.76
2019-01-15T03:21:28.732Z,88.54
2019-01-15T03:23:57.528Z,87.67
2019-01-15T03:26:26.831Z,88.13
2019-01-15T03:28:55.032Z,88.20
2019-01-15T03:31:23.891Z,88.50
2019-01-15T03:33:52.584Z,87.57
2019-01-15T03:36:20.781Z,87.44
2019-01-15T03:38:49.012Z,87.63
2019-01-15T03:41:17.214Z,86.59
2019-01-15T03:43:45.670Z,86.42
2019-01-15T03:46:13.825Z,85.94
2019-01-15T03:50:22.524Z,85.50
2019-01-15T03:52:51.094Z,86.16
2019-01-15T03:55:19.764Z,84.88
2019-01-15T03:57:48.173Z,85.70
2019-01-15T04:00:17.952Z,85.75
2019-01-15T04:02:46.448Z,85.58
2019-01-15T04:05:16.362Z,84.89
2019-01-15T04:07:45.308Z,82.64
2019-01-15T04:11:06.053Z,84.40
2019-01-15T04:13:34.655Z,83.05
2019-01-15T04:16:02.974Z,83.66
2019-01-15T04:18:31.300Z,83.87
2019-01-15T04:20:59.977Z,84.30
2019-01-15T04:23:28.222Z,85.17
2019-01-15T04:25:56.378Z,82.98
2019-01-15T04:28:24.677Z,83.27
2019-01-15T04:30:52.919Z,82.51
2019-01-15T04:33:21.596Z,83.59
2019-01-15T04:35:50.133Z,83.58
2019-01-15T04:38:19.033Z,82.71
2019-01-15T04:40:47.936Z,83.27
2019-01-15T04:43:19.796Z,83.65
2019-01-15T04:45:46.461Z,80.99
2019-01-15T04:48:14.671Z,81.40
2019-01-15T04:50:42.897Z,81.13
2019-01-15T04:53:11.131Z,80.68
2019-01-15T04:55:40.130Z,81.06
2019-01-15T04:58:08.659Z,82.29
2019-01-15T05:02:44.450Z,82.04
2019-01-15T05:05:13.834Z,83.04
2019-01-15T05:07:42.313Z,82.07
2019-01-15T05:10:11.561Z,81.93
2019-01-15T05:12:39.831Z,81.93
2019-01-15T05:15:09.367Z,82.18
2019-01-15T05:17:38.490Z,82.20
2019-01-15T05:20:07.560Z,82.25
2019-01-15T05:22:36.556Z,82.27
2019-01-15T05:25:06.168Z,83.81
2019-01-15T05:27:34.494Z,84.14
2019-01-15T05:30:02.839Z,84.36
2019-01-15T05:32:31.049Z,83.81
2019-01-15T05:34:59.561Z,83.61
2019-01-15T05:37:27.854Z,83.22
2019-01-15T05:39:56.098Z,84.37
2019-01-15T05:42:24.700Z,85.85
2019-01-15T05:44:54.920Z,85.45
2019-01-15T05:47:25.201Z,85.39
2019-01-15T05:49:53.564Z,84.92
2019-01-15T05:52:22.326Z,85.73
2019-01-15T05:54:50.700Z,85.31
2019-01-15T05:57:19.245Z,84.83
2019-01-15T05:59:47.838Z,84.65
2019-01-15T06:02:16.052Z,84.49
2019-01-15T06:04:44.233Z,84.62
2019-01-15T06:07:12.730Z,84.98
2019-01-15T06:09:40.914Z,84.56
2019-01-15T06:12:09.450Z,84.70
2019-01-15T06:14:37.666Z,84.44
2019-01-15T06:17:06.303Z,87.55
2019-01-15T06:19:34.780Z,84.44
2019-01-15T06:22:03.115Z,83.02
2019-01-15T06:24:31.297Z,85.46
2019-01-15T06:26:59.637Z,84.11
2019-01-15T06:29:28.944Z,83.38
2019-01-15T06:31:57.363Z,84.50
2019-01-15T06:34:25.536Z,84.47
2019-01-15T06:36:53.787Z,84.69
2019-01-15T06:40:37.507Z,83.71
2019-01-15T06:43:05.761Z,82.61
2019-01-15T06:45:34.355Z,83.62
2019-01-15T06:48:02.788Z,83.64
2019-01-15T06:50:31.140Z,83.34
2019-01-15T06:52:59.459Z,84.47
2019-01-15T06:55:27.968Z,83.99
2019-01-15T06:57:56.661Z,84.27
2019-01-15T07:00:26.799Z,84.16
2019-01-15T07:02:55.476Z,85.08
2019-01-15T07:05:23.792Z,85.07
2019-01-15T07:07:52.498Z,85.62
2019-01-15T07:10:31.562Z,86.09
2019-01-15T07:13:00.026Z,86.74
2019-01-15T07:15:28.235Z,86.98
2019-01-15T07:17:56.765Z,90.21
2019-01-15T07:20:25.128Z,86.97
2019-01-15T07:22:53.540Z,87.25
2019-01-15T07:25:21.889Z,87.07
2019-01-15T07:27:50.116Z,86.45
2019-01-15T07:30:23.184Z,86.57
2019-01-15T07:32:51.766Z,86.57
2019-01-15T07:35:20.360Z,86.84
2019-01-15T07:37:48.581Z,86.46
2019-01-15T07:40:17.985Z,86.34
2019-01-15T07:42:46.622Z,87.03
2019-01-15T07:47:57.718Z,86.58
2019-01-15T07:50:26.258Z,87.16
2019-01-15T07:52:54.477Z,86.24
2019-01-15T07:58:01.062Z,86.75
2019-01-15T08:00:29.264Z,86.47
2019-01-15T08:02:57.557Z,87.63
2019-01-15T08:05:27.868Z,87.46
2019-01-15T08:07:56.304Z,87.63
2019-01-15T08:10:24.849Z,86.24
2019-01-15T08:12:53.022Z,85.43
2019-01-15T08:15:21.935Z,85.19
2019-01-15T08:17:50.536Z,84.43
2019-01-15T08:20:19.152Z,83.63
2019-01-15T08:22:47.434Z,83.93
2019-01-15T08:25:16.462Z,83.33
2019-01-15T08:27:44.793Z,82.67
2019-01-15T08:30:14.649Z,83.00
2019-01-15T08:32:43.226Z,82.68
2019-01-15T08:35:11.604Z,83.23
2019-01-15T08:37:39.888Z,83.21
2019-01-15T08:40:08.858Z,81.88
2019-01-15T08:42:37.015Z,82.67
2019-01-15T08:45:06.023Z,82.91
2019-01-15T08:47:36.105Z,83.43
2019-01-15T08:50:05.864Z,84.76
2019-01-15T08:52:34.202Z,83.30
2019-01-15T08:55:02.798Z,82.38
2019-01-15T08:57:31.018Z,81.45
2019-01-15T08:59:59.703Z,81.71
2019-01-15T09:02:28.231Z,80.43
2019-01-15T09:04:56.779Z,81.87
2019-01-15T09:07:25.702Z,81.80
2019-01-15T09:09:53.901Z,81.22
2019-01-15T09:12:22.360Z,80.07
2019-01-15T09:14:50.755Z,79.72
2019-01-15T09:17:19.132Z,79.72
2019-01-15T09:19:47.530Z,78.75
2019-01-15T09:22:15.881Z,78.48
2019-01-15T09:26:11.636Z,78.13
2019-01-15T09:28:40.258Z,76.70
2019-01-15T09:31:08.627Z,76.93
2019-01-15T09:33:36.866Z,77.61
2019-01-15T09:36:05.061Z,76.38
2019-01-15T09:38:33.420Z,76.56
2019-01-15T09:41:01.442Z,74.47
2019-01-15T09:43:29.802Z,75.25
2019-01-15T09:45:58.293Z,74.08
2019-01-15T09:48:29.722Z,73.86
2019-01-15T09:50:57.792Z,72.60
2019-01-15T09:53:25.944Z,71.83
2019-01-15T09:55:54.667Z,71.54
2019-01-15T09:58:25.549Z,71.51
2019-01-15T10:00:53.736Z,70.27
2019-01-15T10:03:22.022Z,70.26
2019-01-15T10:05:50.097Z,70.21
2019-01-15T10:08:18.339Z,69.17
2019-01-15T10:10:46.657Z,68.62
2019-01-15T10:13:14.865Z,67.94
2019-01-15T10:15:43.346Z,67.70
2019-01-15T10:18:11.450Z,67.98
2019-01-15T10:20:39.656Z,67.65
2019-01-15T10:23:07.985Z,68.61
2019-01-15T10:25:36.452Z,67.50
2019-01-15T10:28:04.655Z,68.54
2019-01-15T10:30:42.132Z,68.56
2019-01-15T10:33:22.517Z,68.64
2019-01-15T10:35:55.119Z,67.42
2019-01-15T10:38:24.403Z,68.37
2019-01-15T10:40:53.398Z,67.14
2019-01-15T10:43:21.536Z,67.04
2019-01-15T10:45:50.479Z,66.84
2019-01-15T10:48:19.004Z,65.34
2019-01-15T10:50:47.747Z,65.42
2019-01-15T10:53:16.105Z,63.88
2019-01-15T10:55:44.180Z,63.92
2019-01-15T10:58:17.490Z,63.34
2019-01-15T11:00:42.670Z,63.14
2019-01-15T11:03:11.103Z,63.97
2019-01-15T11:05:39.584Z,64.00
2019-01-15T11:08:08.055Z,64.77
2019-01-15T11:10:36.157Z,64.73
2019-01-15T11:13:04.259Z,63.73
2019-01-15T11:15:32.682Z,63.30
2019-01-15T11:18:00.926Z,64.80
2019-01-15T11:20:28.954Z,62.33
2019-01-15T11:22:57.308Z,62.34
2019-01-15T11:25:25.342Z,63.96
2019-01-15T11:27:53.850Z,63.50
2019-01-15T11:30:22.250Z,63.31
2019-01-15T11:32:50.730Z,63.46
2019-01-15T11:35:19.212Z,62.19
2019-01-15T11:37:47.684Z,62.22
2019-01-15T11:40:16.495Z,61.61
2019-01-15T11:42:45.263Z,61.45
2019-01-15T11:45:13.654Z,61.36
2019-01-15T11:47:42.091Z,60.82
2019-01-15T11:50:12.105Z,61.33
2019-01-15T11:52:40.550Z,61.59
2019-01-15T11:55:08.960Z,61.81
2019-01-15T11:57:37.209Z,61.81
2019-01-15T12:00:08.490Z,61.32
2019-01-15T12:02:43.372Z,62.49
2019-01-15T12:05:37.033Z,62.69
2019-01-15T12:08:24.411Z,62.49
2019-01-15T12:11:10.702Z,62.61
2019-01-15T12:13:53.508Z,62.04
2019-01-15T12:16:49.868Z,62.65
2019-01-15T12:19:31.479Z,63.37
2019-01-15T12:22:27.595Z,64.00
2019-01-15T12:25:11.495Z,63.66
2019-01-15T12:28:06.546Z,63.72
2019-01-15T12:30:56.798Z,64.38
2019-01-15T12:33:42.723Z,64.78
2019-01-15T12:36:36.857Z,64.10
2019-01-15T12:39:29.514Z,64.48
2019-01-15T12:42:32.563Z,65.92
2019-01-15T12:45:23.603Z,66.14
2019-01-15T12:48:12.643Z,65.99
2019-01-15T12:51:16.297Z,67.46
2019-01-15T12:54:19.642Z,67.79
2019-01-15T12:57:05.526Z,68.88
2019-01-15T12:59:51.317Z,68.10
2019-01-15T13:02:37.869Z,69.33
2019-01-15T13:05:43.799Z,69.10
2019-01-15T13:08:29.815Z,69.46
2019-01-15T13:11:16.966Z,69.30
2019-01-15T13:14:16.319Z,69.07
2019-01-15T13:17:02.315Z,68.37
2019-01-15T13:19:48.031Z,69.14
2019-01-15T13:22:34.071Z,68.91
2019-01-15T13:25:20.480Z,69.01
2019-01-15T13:28:13.703Z,69.88
2019-01-15T13:30:59.511Z,69.37
2019-01-15T13:33:56.238Z,69.20
2019-01-15T13:36:49.626Z,69.81
2019-01-15T13:39:37.273Z,68.82
2019-01-15T13:42:23.574Z,68.27
2019-01-15T13:45:09.500Z,68.39
2019-01-15T13:47:56.372Z,68.59
2019-01-15T13:50:42.708Z,68.85
2019-01-15T13:53:32.927Z,69.47
2019-01-15T13:56:20.388Z,70.33
2019-01-15T13:59:06.240Z,69.95
2019-01-15T14:02:05.990Z,70.16
2019-01-15T14:04:42.440Z,70.17
2019-01-15T14:07:28.585Z,69.83
2019-01-15T14:10:16.188Z,70.09
2019-01-15T14:13:15.884Z,69.92
2019-01-15T14:16:00.644Z,69.24
2019-01-15T14:18:54.934Z,70.30
2019-01-15T14:21:45.543Z,70.22
2019-01-15T14:24:24.132Z,70.26
2019-01-15T14:27:17.428Z,69.94
2019-01-15T14:30:10.441Z,69.75
2019-01-15T14:32:58.076Z,70.02
2019-01-15T14:35:46.220Z,69.88
2019-01-15T14:38:32.651Z,69.48
2019-01-15T14:41:18.657Z,69.20
2019-01-15T14:44:24.103Z,68.62
2019-01-15T14:47:23.360Z,69.81
2019-01-15T14:50:07.747Z,69.87
2019-01-15T14:53:05.000Z,70.93
2019-01-15T14:55:55.609Z,70.92
2019-01-15T14:58:43.272Z,70.83
2019-01-15T15:01:33.874Z,71.46
2019-01-15T15:04:20.978Z,70.66
2019-01-15T15:07:06.028Z,70.65
2019-01-15T15:10:09.120Z,70.67
2019-01-15T15:12:59.419Z,70.84
2019-01-15T15:15:52.162Z,70.94
2019-01-15T15:18:38.433Z,71.50
2019-01-15T15:21:28.710Z,70.48
2019-01-15T15:24:21.968Z,70.61
2019-01-15T15:26:59.814Z,71.06
2019-01-15T15:29:45.642Z,71.18
2019-01-15T15:32:36.615Z,70.34
2019-01-15T15:35:33.823Z,70.55
2019-01-15T15:38:24.066Z,70.18
2019-01-15T15:41:17.317Z,69.90
2019-01-15T15:44:04.852Z,69.36
2019-01-15T15:46:50.795Z,69.55
2019-01-15T15:50:17.530Z,68.45
2019-01-15T15:53:17.413Z,68.69
2019-01-15T15:56:14.149Z,68.52
2019-01-15T15:59:01.875Z,68.75
2019-01-15T16:01:48.118Z,68.56
2019-01-15T16:04:26.712Z,69.21
2019-01-15T16:07:12.714Z,68.92
2019-01-15T16:09:59.030Z,68.62
2019-01-15T16:12:54.737Z,68.26
2019-01-15T16:15:51.442Z,68.27
2019-01-15T16:18:38.875Z,68.05
2019-01-15T16:21:25.367Z,68.84
2019-01-15T16:24:13.247Z,67.80
2019-01-15T16:26:53.962Z,68.05
2019-01-15T16:29:56.506Z,67.86
2019-01-15T16:33:02.030Z,67.64
2019-01-15T16:35:55.126Z,67.58
2019-01-15T16:38:46.289Z,67.19
2019-01-15T16:41:34.093Z,66.37
2019-01-15T16:44:20.611Z,67.09
2019-01-15T16:46:59.849Z,66.46
2019-01-15T16:49:50.751Z,66.52
2019-01-15T16:52:37.582Z,67.07
2019-01-15T16:55:23.971Z,66.87
2019-01-15T16:58:10.595Z,66.19
2019-01-15T17:00:51.350Z,66.13
2019-01-15T17:03:51.173Z,67.18
2019-01-15T17:06:47.465Z,66.88
2019-01-15T17:09:32.897Z,66.18
2019-01-15T17:12:28.691Z,66.44
2019-01-15T17:15:15.847Z,66.55
2019-01-15T17:18:02.830Z,66.69
2019-01-15T17:20:37.949Z,66.53
2019-01-15T17:23:20.386Z,66.78
2019-01-15T17:26:09.014Z,67.17
2019-01-15T17:29:05.058Z,66.69
2019-01-15T17:31:59.621Z,67.07
2019-01-15T17:34:40.381Z,67.13
2019-01-15T17:37:27.402Z,67.17
2019-01-15T17:40:20.435Z,67.53
2019-01-15T17:43:06.696Z,67.46
2019-01-15T17:46:05.723Z,68.44
2019-01-15T17:48:55.980Z,69.36
2019-01-15T17:51:46.193Z,69.66
2019-01-15T17:54:45.908Z,69.24
2019-01-15T17:57:33.307Z,70.01
2019-01-15T18:00:27.095Z,69.62
2019-01-15T18:03:23.334Z,70.39
2019-01-15T18:06:23.062Z,71.58
2019-01-15T18:09:25.432Z,71.43
2019-01-15T18:12:15.314Z,72.11
2019-01-15T18:15:15.199Z,72.30
2019-01-15T18:18:08.680Z,72.84
2019-01-15T18:20:54.801Z,72.42
2019-01-15T18:23:45.034Z,72.66
2019-01-15T18:26:31.082Z,71.96
2019-01-15T18:29:27.332Z,72.23
2019-01-15T18:32:14.811Z,71.72
2019-01-15T18:35:01.322Z,71.70
2019-01-15T18:37:43.414Z,71.77
2019-01-15T18:40:42.959Z,71.40
2019-01-15T18:46:40.420Z,71.81
2019-01-15T18:49:26.739Z,71.24
2019-01-15T18:52:14.097Z,71.08
2019-01-15T18:55:16.686Z,71.40
2019-01-15T18:58:03.929Z,71.22
2019-01-15T19:00:54.024Z,71.11
